If you wish to contribute or participate in the discussions about articles you are invited to join SKYbrary as a registered user

 Actions

Albert-Bray Airport

From SKYbrary Wiki

LFAQ
Airport
ICAO: LFAQ
Summary
Name Albert-Bray Airport
Region Europe
Territory France FR.gif
Location , Picardie
Serving Albert
Elevation 110.947 m
364 ft
364 ft110.947 m
Type small airport
Coordinates 49° 58' 17.5116", 2° 41' 51.5796"
Runways
Designator Length Width Surface ROPS
9/27 1170 m3,838.583 ft 25 m82.021 ft ASP /
METAR
Observation LFAQ 130700Z AUTO 20019KT 9000 OVC005 04/04 Q1004 BECMG 20020G30KT 3000 RA
Station BRAY
Date/Time 13 December 2017 07:00:00
Wind direction 200°
Wind speed 19 kts
Lowest cloud amount overcast
Temperature 4°C
Dew point 4°C
Humidity 100%
QNH 1004 hPa
Weather condition n/a